Time;durP1;ratioP1;P1;durP2;ratioP2;P2;SDS_P1;SDS_P2;PMS_P1;PMS_P2;Temp;Humidity;BMP_temperature;BMP_pressure;BME280_temperature;BME280_humidity;BME280_pressure;Samples;Min_cycle;Max_cycle;Signal;HPM_P1;HPM_P2
2023/07/18 00:00:38;;;;;;;10.85;4.35;;;13.10;99.90;;;;;;5133559;27;20039;-61
2023/07/18 00:03:05;;;;;;;10.23;4.20;;;13.30;99.90;;;;;;5132030;27;20070;-61
2023/07/18 00:05:31;;;;;;;14.48;5.00;;;13.20;99.90;;;;;;5135160;27;20042;-61
2023/07/18 00:07:57;;;;;;;16.33;5.70;;;13.30;99.90;;;;;;5117036;27;20042;-61
2023/07/18 00:10:23;;;;;;;12.75;4.75;;;13.20;99.90;;;;;;5134272;27;20035;-61
2023/07/18 00:12:50;;;;;;;13.23;5.15;;;13.10;99.90;;;;;;5134707;27;20233;-61
2023/07/18 00:15:16;;;;;;;15.80;5.20;;;13.10;99.90;;;;;;5134801;27;20062;-61
2023/07/18 00:17:43;;;;;;;15.90;4.88;;;11.20;99.90;;;;;;5135448;27;20115;-61
2023/07/18 00:20:13;;;;;;;12.50;4.72;;;13.00;99.90;;;;;;5098316;27;20041;-61
2023/07/18 00:22:43;;;;;;;14.65;4.90;;;13.00;99.90;;;;;;5134074;27;20033;-61
2023/07/18 00:25:13;;;;;;;11.75;4.72;;;13.10;99.90;;;;;;5132957;27;20052;-61
2023/07/18 00:27:42;;;;;;;16.17;5.30;;;13.10;99.90;;;;;;5134139;27;20560;-60
2023/07/18 00:30:12;;;;;;;12.57;4.28;;;13.10;99.90;;;;;;5133991;27;20084;-61
2023/07/18 00:32:38;;;;;;;16.88;5.20;;;12.90;99.90;;;;;;5133782;27;20433;-61
2023/07/18 00:35:04;;;;;;;15.10;5.15;;;13.10;99.90;;;;;;5133691;27;20074;-60
2023/07/18 00:37:31;;;;;;;12.30;4.65;;;12.80;99.90;;;;;;5136793;27;20039;-61
2023/07/18 00:39:57;;;;;;;16.23;5.05;;;13.00;99.90;;;;;;5132025;27;20047;-61
2023/07/18 00:42:23;;;;;;;19.75;6.30;;;13.00;99.90;;;;;;5132399;27;20039;-61
2023/07/18 00:44:50;;;;;;;13.15;6.00;;;12.90;99.90;;;;;;5132767;27;20102;-60
2023/07/18 00:47:17;;;;;;;15.82;5.47;;;13.10;99.90;;;;;;5134386;27;20047;-61
2023/07/18 00:49:43;;;;;;;15.25;5.22;;;12.80;99.90;;;;;;5131665;27;20190;-61
2023/07/18 00:52:10;;;;;;;15.73;4.95;;;12.90;99.90;;;;;;5132540;27;20050;-61
2023/07/18 00:54:37;;;;;;;15.07;5.35;;;13.00;99.90;;;;;;5132926;27;20039;-61
2023/07/18 00:57:02;;;;;;;14.02;4.90;;;12.90;99.90;;;;;;5133681;27;20034;-61
2023/07/18 00:59:30;;;;;;;10.52;4.50;;;12.80;99.90;;;;;;5113439;27;20804;-61
2023/07/18 01:01:56;;;;;;;10.80;4.45;;;12.90;99.90;;;;;;5133010;27;20571;-61
2023/07/18 01:04:21;;;;;;;16.27;5.57;;;12.90;99.90;;;;;;5131253;27;20042;-61
2023/07/18 01:06:48;;;;;;;13.60;5.22;;;12.80;99.90;;;;;;5133344;27;20079;-61
2023/07/18 01:09:14;;;;;;;11.70;5.30;;;12.80;99.90;;;;;;5133621;27;20038;-61
2023/07/18 01:11:40;;;;;;;11.57;5.15;;;12.90;99.90;;;;;;5133650;27;20054;-61
2023/07/18 01:14:05;;;;;;;13.68;4.93;;;12.70;99.90;;;;;;5132128;27;20136;-61
2023/07/18 01:16:31;;;;;;;12.50;4.93;;;12.60;99.90;;;;;;5134551;27;20412;-60
2023/07/18 01:18:57;;;;;;;15.52;6.50;;;12.80;99.90;;;;;;5133024;27;20050;-61
2023/07/18 01:21:23;;;;;;;13.65;4.93;;;12.90;99.90;;;;;;5131950;27;20046;-61
2023/07/18 01:23:49;;;;;;;15.32;5.13;;;12.80;99.90;;;;;;5131712;27;20053;-61
2023/07/18 01:26:15;;;;;;;12.43;5.15;;;12.70;99.90;;;;;;5133843;27;20080;-61
2023/07/18 01:28:41;;;;;;;10.20;5.05;;;12.60;99.90;;;;;;5133150;27;20039;-61
2023/07/18 01:31:07;;;;;;;16.90;5.13;;;12.70;99.90;;;;;;5133006;27;20053;-61
2023/07/18 01:33:34;;;;;;;18.05;5.07;;;12.50;99.90;;;;;;5132375;27;20038;-61
2023/07/18 01:36:00;;;;;;;15.52;5.15;;;12.70;99.90;;;;;;5133388;27;20048;-61
2023/07/18 01:38:29;;;;;;;14.38;4.93;;;12.50;99.90;;;;;;5133813;27;20038;-61
2023/07/18 01:41:02;;;;;;;12.05;4.85;;;12.70;99.90;;;;;;5133311;27;20074;-61
2023/07/18 01:43:27;;;;;;;18.05;5.82;;;12.50;99.90;;;;;;5131949;27;20039;-61
2023/07/18 01:46:00;;;;;;;23.00;6.18;;;12.50;99.90;;;;;;5130599;27;20155;-61
2023/07/18 01:48:26;;;;;;;17.35;6.57;;;12.50;99.90;;;;;;5132979;27;20042;-60
2023/07/18 01:50:52;;;;;;;15.77;6.10;;;12.60;99.90;;;;;;5132744;27;20071;-60
2023/07/18 01:53:18;;;;;;;21.58;5.80;;;12.60;99.90;;;;;;5132712;27;20159;-61
2023/07/18 01:55:44;;;;;;;19.92;6.25;;;12.70;99.90;;;;;;5131234;27;20177;-61
2023/07/18 01:58:09;;;;;;;21.23;6.30;;;12.60;99.90;;;;;;5131062;27;20133;-60
2023/07/18 02:00:35;;;;;;;18.38;5.82;;;12.70;99.90;;;;;;5130959;27;20507;-61
2023/07/18 02:03:02;;;;;;;14.80;5.55;;;12.50;99.90;;;;;;5130822;27;20554;-61
2023/07/18 02:05:30;;;;;;;15.43;6.50;;;12.60;99.90;;;;;;5130758;27;20149;-61
2023/07/18 02:07:57;;;;;;;20.20;6.28;;;12.70;99.90;;;;;;5131797;27;20499;-61
2023/07/18 02:10:24;;;;;;;15.63;6.00;;;12.60;99.90;;;;;;5111680;27;20047;-61
2023/07/18 02:12:51;;;;;;;13.38;4.80;;;12.60;99.90;;;;;;5130529;27;21434;-61
2023/07/18 02:15:18;;;;;;;11.30;4.80;;;12.60;99.90;;;;;;5113148;27;20062;-61
2023/07/18 02:17:44;;;;;;;17.95;5.65;;;12.60;99.90;;;;;;5131268;27;20121;-61
2023/07/18 02:20:14;;;;;;;18.98;6.22;;;12.70;99.90;;;;;;5130640;27;21079;-61
2023/07/18 02:22:41;;;;;;;14.20;6.07;;;12.70;99.90;;;;;;5132358;27;20511;-61
2023/07/18 02:25:08;;;;;;;18.70;5.90;;;12.80;99.90;;;;;;5131263;27;20039;-61
2023/07/18 02:27:36;;;;;;;22.08;5.97;;;12.80;99.90;;;;;;5131251;27;20221;-61
2023/07/18 02:30:02;;;;;;;18.15;6.25;;;12.90;99.90;;;;;;5131962;27;20050;-61
2023/07/18 02:32:29;;;;;;;19.52;5.75;;;12.80;99.90;;;;;;5131542;27;20494;-61
2023/07/18 02:34:55;;;;;;;17.70;7.00;;;12.90;99.90;;;;;;5095854;27;20074;-61
2023/07/18 02:37:23;;;;;;;20.27;6.53;;;12.80;99.90;;;;;;5131109;27;20078;-61
2023/07/18 02:39:49;;;;;;;18.92;6.25;;;12.70;99.90;;;;;;5132237;27;20039;-60
2023/07/18 02:42:15;;;;;;;18.48;5.97;;;12.60;99.90;;;;;;5131439;27;21036;-60
2023/07/18 02:44:41;;;;;;;15.43;5.25;;;12.70;99.90;;;;;;5131874;27;20501;-60
2023/07/18 02:47:07;;;;;;;20.60;6.50;;;12.70;99.90;;;;;;5132087;27;20085;-61
2023/07/18 02:49:33;;;;;;;21.33;6.35;;;12.80;99.90;;;;;;5131144;27;20035;-60
2023/07/18 02:51:58;;;;;;;22.50;6.82;;;13.00;99.90;;;;;;5132240;27;20054;-61
2023/07/18 02:54:24;;;;;;;22.00;6.47;;;12.70;99.90;;;;;;5132445;27;20035;-61
2023/07/18 02:56:50;;;;;;;21.65;7.93;;;12.80;99.90;;;;;;5131522;27;20084;-61
2023/07/18 02:59:20;;;;;;;16.83;7.00;;;12.60;99.90;;;;;;5131910;27;20828;-61
2023/07/18 03:01:49;;;;;;;18.88;6.10;;;12.70;99.90;;;;;;5133302;27;20174;-61
2023/07/18 03:04:16;;;;;;;18.27;7.40;;;12.70;99.90;;;;;;5130356;27;20042;-60
2023/07/18 03:06:43;;;;;;;16.13;6.72;;;12.60;99.90;;;;;;5132046;27;20134;-61
2023/07/18 03:09:09;;;;;;;18.35;6.07;;;12.50;99.90;;;;;;5133222;27;20171;-61
2023/07/18 03:11:35;;;;;;;20.75;6.85;;;12.60;99.90;;;;;;5132538;27;20046;-61
2023/07/18 03:14:01;;;;;;;23.63;6.60;;;12.60;99.90;;;;;;5130412;27;20031;-61
2023/07/18 03:16:26;;;;;;;19.00;6.55;;;12.60;99.90;;;;;;5130514;27;20051;-61
2023/07/18 03:18:54;;;;;;;24.60;7.00;;;12.70;99.90;;;;;;5131947;27;20187;-62
2023/07/18 03:21:20;;;;;;;18.17;7.28;;;12.50;99.90;;;;;;5111885;27;20114;-62
2023/07/18 03:23:46;;;;;;;20.27;6.88;;;12.70;99.90;;;;;;5130499;27;20133;-61
2023/07/18 03:26:11;;;;;;;17.45;6.05;;;12.50;99.90;;;;;;5129539;27;20426;-61
2023/07/18 03:28:37;;;;;;;16.75;6.32;;;12.40;99.90;;;;;;5131497;27;20038;-62
2023/07/18 03:31:03;;;;;;;19.08;7.25;;;12.60;99.90;;;;;;5130851;27;20587;-62
2023/07/18 03:33:29;;;;;;;20.23;6.80;;;12.50;99.90;;;;;;5130083;27;20301;-62
2023/07/18 03:35:55;;;;;;;16.65;6.93;;;12.40;99.90;;;;;;5129209;27;20059;-62
2023/07/18 03:38:20;;;;;;;13.80;5.95;;;12.40;99.90;;;;;;5113485;27;20042;-62
2023/07/18 03:40:47;;;;;;;15.27;6.50;;;12.60;99.90;;;;;;5130023;27;20037;-62
2023/07/18 03:43:13;;;;;;;19.13;6.93;;;12.60;99.90;;;;;;5130700;27;20042;-62
2023/07/18 03:45:40;;;;;;;18.00;6.07;;;12.50;99.90;;;;;;5131896;27;20054;-62
2023/07/18 03:48:05;;;;;;;14.45;6.18;;;12.60;99.90;;;;;;5131509;27;20059;-62
2023/07/18 03:50:31;;;;;;;23.70;7.32;;;12.60;99.90;;;;;;5130832;27;20134;-62
2023/07/18 03:52:57;;;;;;;23.23;7.95;;;12.30;99.90;;;;;;5130697;27;20057;-62
2023/07/18 03:55:23;;;;;;;22.38;7.55;;;12.50;99.90;;;;;;5130134;27;20050;-62
2023/07/18 03:57:49;;;;;;;13.60;6.53;;;12.60;99.90;;;;;;5110909;27;20043;-62
2023/07/18 04:00:17;;;;;;;18.75;7.18;;;12.60;99.90;;;;;;5130958;27;20059;-62
2023/07/18 04:02:45;;;;;;;15.35;6.63;;;12.50;99.90;;;;;;5129749;27;20035;-62
2023/07/18 04:05:13;;;;;;;16.20;6.10;;;12.40;99.90;;;;;;5128627;27;20074;-61
2023/07/18 04:07:40;;;;;;;14.05;5.90;;;12.70;99.90;;;;;;5131721;27;20043;-62
2023/07/18 04:10:06;;;;;;;26.05;7.90;;;12.60;99.90;;;;;;5134309;27;20069;-62
2023/07/18 04:12:32;;;;;;;15.88;7.00;;;12.50;99.90;;;;;;5133301;27;20455;-62
2023/07/18 04:14:58;;;;;;;23.83;7.22;;;12.50;99.90;;;;;;5134950;27;20699;-62
2023/07/18 04:17:24;;;;;;;17.42;7.30;;;12.50;99.90;;;;;;5133943;27;20409;-62
2023/07/18 04:19:52;;;;;;;17.75;7.25;;;12.50;99.90;;;;;;5133356;27;20076;-62
2023/07/18 04:22:17;;;;;;;17.88;6.65;;;12.80;99.90;;;;;;5133460;27;20725;-62
2023/07/18 04:24:43;;;;;;;16.55;6.18;;;12.60;99.90;;;;;;5135638;27;20071;-62
2023/07/18 04:27:09;;;;;;;16.05;6.35;;;12.80;99.90;;;;;;5133825;27;20048;-62
2023/07/18 04:29:34;;;;;;;15.93;6.93;;;12.60;99.90;;;;;;5134040;27;20081;-62
2023/07/18 04:32:00;;;;;;;14.75;6.65;;;12.80;99.90;;;;;;5133289;27;20328;-62
2023/07/18 04:34:26;;;;;;;18.63;7.07;;;12.90;99.90;;;;;;5134179;27;20424;-62
2023/07/18 04:36:52;;;;;;;20.55;6.80;;;12.70;99.90;;;;;;5134391;27;20066;-62
2023/07/18 04:39:18;;;;;;;17.77;6.90;;;12.90;99.90;;;;;;5117262;27;20165;-63
2023/07/18 04:41:43;;;;;;;20.25;7.28;;;13.00;99.90;;;;;;5133555;27;20089;-61
2023/07/18 04:44:09;;;;;;;15.07;6.32;;;13.10;99.90;;;;;;5134473;27;20124;-62
2023/07/18 04:46:35;;;;;;;21.60;6.88;;;13.00;99.90;;;;;;5133157;27;20521;-62
2023/07/18 04:49:00;;;;;;;19.10;7.25;;;13.10;99.90;;;;;;5133254;27;20069;-63
2023/07/18 04:51:26;;;;;;;16.63;6.47;;;13.10;99.90;;;;;;5135149;27;20125;-62
2023/07/18 04:53:52;;;;;;;19.35;6.97;;;13.20;99.90;;;;;;5133595;27;20493;-62
2023/07/18 04:56:17;;;;;;;25.63;7.25;;;13.30;99.90;;;;;;5133334;27;20099;-62
2023/07/18 04:58:43;;;;;;;22.65;6.57;;;13.30;99.90;;;;;;5134461;27;20058;-62
2023/07/18 05:01:09;;;;;;;24.10;6.75;;;13.50;99.90;;;;;;5133702;27;20051;-62
2023/07/18 05:03:35;;;;;;;13.27;6.43;;;13.10;99.90;;;;;;5132844;27;20039;-62
2023/07/18 05:06:00;;;;;;;18.00;6.75;;;13.30;99.90;;;;;;5133631;27;20042;-62
2023/07/18 05:08:26;;;;;;;14.18;6.00;;;13.50;99.90;;;;;;5116052;27;20070;-63
2023/07/18 05:11:00;;;;;;;24.23;8.63;;;13.50;99.90;;;;;;5132185;27;20062;-62
2023/07/18 05:13:26;;;;;;;15.15;6.70;;;13.70;99.90;;;;;;5132892;27;20091;-62
2023/07/18 05:15:51;;;;;;;19.20;6.78;;;13.80;99.90;;;;;;5131651;27;20051;-62
2023/07/18 05:18:17;;;;;;;18.05;5.85;;;13.80;99.90;;;;;;5132308;27;20146;-62
2023/07/18 05:20:43;;;;;;;19.50;6.55;;;13.80;99.90;;;;;;5133092;27;20051;-62
2023/07/18 05:23:08;;;;;;;22.15;7.03;;;13.90;99.90;;;;;;5132649;27;20046;-62
2023/07/18 05:25:34;;;;;;;19.00;6.47;;;14.30;99.90;;;;;;5133594;27;20129;-62
2023/07/18 05:28:00;;;;;;;22.75;7.15;;;14.20;99.90;;;;;;5115884;27;20046;-62
2023/07/18 05:30:26;;;;;;;18.30;6.10;;;14.10;99.90;;;;;;5131865;27;20514;-62
2023/07/18 05:32:55;;;;;;;18.30;6.78;;;14.10;99.90;;;;;;5098299;27;20042;-62
2023/07/18 05:35:21;;;;;;;18.77;6.30;;;14.30;99.90;;;;;;5131682;27;20132;-62
2023/07/18 05:37:47;;;;;;;18.92;6.63;;;14.30;99.90;;;;;;5131954;27;20134;-62
2023/07/18 05:40:13;;;;;;;18.42;6.20;;;14.50;99.90;;;;;;5134266;27;20563;-62
2023/07/18 05:42:39;;;;;;;21.20;7.15;;;14.40;99.90;;;;;;5130902;27;20046;-62
2023/07/18 05:45:07;;;;;;;22.10;6.70;;;14.30;99.90;;;;;;5131016;27;20055;-62
2023/07/18 05:47:34;;;;;;;16.00;6.57;;;14.60;99.90;;;;;;5131091;27;20055;-63
2023/07/18 05:50:00;;;;;;;17.60;6.55;;;14.70;99.90;;;;;;5114907;27;20058;-62
2023/07/18 05:52:26;;;;;;;16.15;6.10;;;14.80;99.90;;;;;;5133346;27;20387;-62
2023/07/18 05:54:52;;;;;;;15.57;5.55;;;14.90;99.90;;;;;;5132811;27;20752;-62
2023/07/18 05:57:18;;;;;;;17.40;6.30;;;15.10;99.90;;;;;;5130907;27;20456;-62
2023/07/18 05:59:44;;;;;;;19.75;7.10;;;15.30;99.90;;;;;;5132827;27;20310;-62
2023/07/18 06:02:10;;;;;;;17.95;6.70;;;15.20;99.90;;;;;;5132161;27;20047;-62
2023/07/18 06:04:36;;;;;;;19.35;6.30;;;15.60;99.90;;;;;;5130180;27;20280;-62
2023/07/18 06:07:03;;;;;;;17.13;5.47;;;15.50;99.90;;;;;;5131841;27;20063;-61
2023/07/18 06:09:28;;;;;;;21.75;6.13;;;15.70;99.90;;;;;;5132927;27;20148;-62
2023/07/18 06:11:54;;;;;;;15.50;6.00;;;15.80;99.90;;;;;;5113006;27;20555;-62
2023/07/18 06:14:20;;;;;;;20.60;7.32;;;16.00;99.90;;;;;;5130995;27;20062;-62
2023/07/18 06:16:46;;;;;;;14.68;6.78;;;15.80;99.90;;;;;;5132741;27;20046;-62
2023/07/18 06:19:12;;;;;;;18.48;6.32;;;16.00;99.90;;;;;;5130113;27;20030;-62
2023/07/18 06:21:38;;;;;;;19.33;6.35;;;16.10;99.90;;;;;;5130776;27;20499;-62
2023/07/18 06:24:05;;;;;;;18.20;6.28;;;16.40;99.90;;;;;;5131871;27;20043;-62
2023/07/18 06:26:31;;;;;;;19.13;6.80;;;16.60;99.90;;;;;;5130675;27;20034;-62
2023/07/18 06:28:57;;;;;;;17.23;5.65;;;16.60;99.90;;;;;;5129862;27;20057;-62
2023/07/18 06:31:23;;;;;;;17.55;6.60;;;16.70;99.90;;;;;;5129930;27;20399;-62
2023/07/18 06:33:49;;;;;;;18.08;6.00;;;16.70;99.90;;;;;;5129979;27;20041;-62
2023/07/18 06:36:15;;;;;;;15.45;6.88;;;16.70;99.90;;;;;;5131405;27;20318;-62
2023/07/18 06:38:42;;;;;;;17.08;6.43;;;16.80;99.90;;;;;;5131053;27;20193;-62
2023/07/18 06:41:07;;;;;;;19.25;6.40;;;16.80;99.90;;;;;;5113011;27;20348;-62
2023/07/18 06:43:33;;;;;;;21.25;6.10;;;16.70;99.90;;;;;;5131062;27;20030;-62
2023/07/18 06:45:59;;;;;;;17.33;6.78;;;17.20;99.90;;;;;;5130622;27;20042;-62
2023/07/18 06:48:25;;;;;;;22.92;6.68;;;17.10;99.90;;;;;;5128229;27;20411;-62
2023/07/18 06:50:52;;;;;;;16.60;6.65;;;17.00;99.90;;;;;;5130128;27;20540;-63
2023/07/18 06:53:20;;;;;;;16.90;6.13;;;17.10;99.90;;;;;;5129892;27;20042;-62
2023/07/18 06:55:48;;;;;;;15.65;6.45;;;17.30;99.90;;;;;;5084827;27;20471;-62
2023/07/18 06:58:18;;;;;;;22.30;6.85;;;17.50;99.90;;;;;;5129378;27;20043;-63
2023/07/18 07:00:45;;;;;;;30.38;6.85;;;17.70;99.90;;;;;;5130245;27;20034;-62
2023/07/18 07:03:11;;;;;;;15.93;6.07;;;17.70;99.90;;;;;;5129106;27;20461;-62
2023/07/18 07:05:38;;;;;;;19.52;6.35;;;17.80;99.90;;;;;;5112135;27;20468;-62
2023/07/18 07:08:10;;;;;;;19.10;7.47;;;17.60;99.90;;;;;;5131064;27;20170;-62
2023/07/18 07:10:36;;;;;;;21.52;7.07;;;17.70;99.90;;;;;;5132761;27;20039;-62
2023/07/18 07:13:03;;;;;;;24.23;7.03;;;17.80;99.90;;;;;;5130225;27;20051;-62
2023/07/18 07:15:29;;;;;;;17.95;6.50;;;17.70;99.90;;;;;;5129375;27;20122;-62
2023/07/18 07:17:55;;;;;;;15.68;6.22;;;18.00;99.90;;;;;;5130172;27;20112;-62
2023/07/18 07:20:24;;;;;;;18.25;5.47;;;18.50;99.90;;;;;;5131061;27;20055;-62
2023/07/18 07:22:53;;;;;;;20.33;6.28;;;18.80;99.90;;;;;;5130968;27;20061;-62
2023/07/18 07:25:19;;;;;;;19.15;6.15;;;19.50;99.90;;;;;;5129960;27;20034;-62
2023/07/18 07:27:46;;;;;;;14.30;5.03;;;19.70;99.90;;;;;;5131606;27;20046;-62
2023/07/18 07:30:17;;;;;;;18.95;6.43;;;20.60;99.90;;;;;;5130857;27;20041;-63
2023/07/18 07:32:51;;;;;;;17.52;6.82;;;21.10;99.90;;;;;;5131324;27;20082;-62
2023/07/18 07:35:22;;;;;;;11.68;4.75;;;21.10;99.90;;;;;;5129247;27;20084;-62
2023/07/18 07:37:50;;;;;;;13.05;5.40;;;21.60;99.90;;;;;;5129292;27;20039;-60
2023/07/18 07:40:16;;;;;;;16.73;5.88;;;22.80;99.90;;;;;;5129764;27;20070;-61
2023/07/18 07:42:44;;;;;;;15.27;5.10;;;22.80;99.90;;;;;;5131290;27;20045;-60
2023/07/18 07:45:10;;;;;;;14.50;5.15;;;23.20;99.90;;;;;;5133438;27;20042;-61
2023/07/18 07:47:36;;;;;;;17.58;5.65;;;23.70;99.90;;;;;;5133852;27;20043;-60
2023/07/18 07:50:03;;;;;;;19.33;6.63;;;23.10;99.90;;;;;;5132819;27;20428;-60
2023/07/18 07:52:29;;;;;;;12.90;4.40;;;22.50;99.90;;;;;;5134969;27;20030;-60
2023/07/18 07:54:55;;;;;;;15.75;4.88;;;21.90;99.90;;;;;;5134679;27;20069;-60
2023/07/18 07:57:22;;;;;;;17.35;5.85;;;23.00;99.90;;;;;;5134241;27;20447;-60
2023/07/18 07:59:53;;;;;;;11.10;4.50;;;21.20;99.90;;;;;;5135004;27;20568;-59
2023/07/18 08:02:19;;;;;;;16.38;4.25;;;21.80;99.90;;;;;;5134647;27;20430;-60
2023/07/18 08:04:49;;;;;;;16.98;4.07;;;22.30;99.90;;;;;;5134235;27;20285;-60
2023/07/18 08:07:15;;;;;;;13.80;3.88;;;22.60;99.90;;;;;;5134413;27;20078;-60
2023/07/18 08:09:41;;;;;;;16.15;4.35;;;23.40;99.90;;;;;;5115438;27;20099;-60
2023/07/18 08:12:09;;;;;;;14.75;4.45;;;23.60;99.90;;;;;;5133659;27;20030;-63
2023/07/18 08:14:37;;;;;;;13.35;4.40;;;23.90;99.90;;;;;;5133893;27;20206;-64
2023/07/18 08:17:04;;;;;;;13.40;3.80;;;24.20;99.90;;;;;;5132890;27;20035;-64
2023/07/18 08:19:31;;;;;;;15.18;3.75;;;24.70;99.90;;;;;;5132226;27;20035;-64
2023/07/18 08:21:58;;;;;;;12.90;3.72;;;24.40;99.90;;;;;;5132686;27;20042;-63
2023/07/18 08:24:23;;;;;;;14.35;3.70;;;24.90;99.90;;;;;;5134216;27;20053;-63
2023/07/18 08:26:49;;;;;;;9.68;2.40;;;25.30;99.90;;;;;;5131128;27;20027;-63
2023/07/18 08:29:15;;;;;;;11.35;2.65;;;25.00;99.90;;;;;;5133321;27;21031;-63
2023/07/18 08:31:41;;;;;;;12.00;2.75;;;26.10;99.90;;;;;;5133508;27;20057;-63
2023/07/18 08:34:07;;;;;;;12.65;2.60;;;24.00;99.90;;;;;;5133809;27;20686;-61
2023/07/18 08:36:35;;;;;;;10.48;2.28;;;23.90;99.90;;;;;;5113717;27;20050;-61
2023/07/18 08:39:02;;;;;;;12.57;2.70;;;24.10;99.90;;;;;;5113987;27;20039;-61
2023/07/18 08:41:28;;;;;;;11.27;2.53;;;24.50;99.90;;;;;;5133336;27;20039;-61
2023/07/18 08:43:55;;;;;;;7.82;1.90;;;24.90;99.90;;;;;;5133179;27;20062;-60
2023/07/18 08:46:21;;;;;;;11.00;2.75;;;24.50;99.90;;;;;;5130372;27;20053;-60
2023/07/18 08:48:50;;;;;;;9.40;2.67;;;24.10;99.90;;;;;;5130543;27;20201;-61
2023/07/18 08:51:17;;;;;;;7.30;1.77;;;24.00;99.90;;;;;;5131735;27;20038;-61
2023/07/18 08:53:43;;;;;;;9.98;2.47;;;23.70;99.90;;;;;;5133124;27;20042;-60
2023/07/18 08:56:09;;;;;;;10.27;2.15;;;23.60;99.90;;;;;;5110461;27;20030;-60
2023/07/18 08:58:37;;;;;;;5.85;1.63;;;23.10;99.90;;;;;;5131937;27;20541;-60
2023/07/18 09:01:04;;;;;;;8.93;2.40;;;22.90;99.90;;;;;;5131209;27;20132;-60
2023/07/18 09:03:30;;;;;;;10.15;2.38;;;22.90;99.90;;;;;;5133524;27;20402;-61
2023/07/18 09:05:57;;;;;;;8.73;2.10;;;22.70;99.90;;;;;;5097794;27;20043;-61
2023/07/18 09:08:23;;;;;;;9.63;2.92;;;22.80;99.90;;;;;;5131700;27;20039;-61
2023/07/18 09:11:02;;;;;;;12.60;3.05;;;23.50;99.90;;;;;;5133133;27;20041;-61
2023/07/18 09:13:27;;;;;;;8.70;2.30;;;23.90;99.90;;;;;;5131988;27;20041;-59
2023/07/18 09:15:53;;;;;;;7.50;2.03;;;24.60;99.90;;;;;;5131590;27;20046;-59
2023/07/18 09:18:19;;;;;;;7.60;2.03;;;25.00;99.90;;;;;;5130602;27;20092;-59
2023/07/18 09:20:45;;;;;;;7.97;2.05;;;25.40;99.90;;;;;;5131925;27;20039;-59
2023/07/18 09:23:13;;;;;;;5.88;1.50;;;25.80;99.90;;;;;;5128238;27;20041;-59
2023/07/18 09:25:39;;;;;;;7.78;2.40;;;25.40;99.90;;;;;;5128716;27;20538;-59
2023/07/18 09:28:10;;;;;;;7.40;1.83;;;24.90;99.90;;;;;;5132052;27;20075;-59
2023/07/18 09:30:36;;;;;;;7.53;1.40;;;24.70;99.90;;;;;;5129465;27;20438;-58
2023/07/18 09:33:06;;;;;;;9.23;2.08;;;24.80;99.90;;;;;;5130286;27;20050;-59
2023/07/18 09:35:50;;;;;;;8.25;1.83;;;24.50;99.90;;;;;;5132631;27;20045;-59
2023/07/18 09:38:18;;;;;;;11.38;2.85;;;24.40;99.90;;;;;;5133009;27;20034;-59
2023/07/18 09:40:44;;;;;;;14.85;2.50;;;24.00;99.90;;;;;;5134908;27;20091;-59
2023/07/18 09:43:12;;;;;;;11.48;2.47;;;24.00;99.90;;;;;;5132379;27;20054;-59
2023/07/18 09:45:40;;;;;;;10.77;2.80;;;24.40;99.90;;;;;;5133006;27;20110;-59
2023/07/18 09:48:07;;;;;;;9.90;2.38;;;24.10;99.90;;;;;;5132359;27;20588;-59
2023/07/18 09:50:35;;;;;;;9.23;2.35;;;24.50;99.90;;;;;;5131791;27;20452;-59
2023/07/18 09:53:06;;;;;;;10.38;2.63;;;24.30;99.90;;;;;;5112451;27;20121;-59
2023/07/18 09:55:34;;;;;;;9.48;2.35;;;23.80;99.90;;;;;;5131303;27;20521;-59
2023/07/18 09:58:00;;;;;;;13.63;3.08;;;23.40;99.90;;;;;;5131060;27;20495;-59
2023/07/18 10:00:26;;;;;;;10.18;2.35;;;23.00;99.90;;;;;;5131811;27;20042;-59
2023/07/18 10:02:54;;;;;;;12.13;2.58;;;23.00;99.90;;;;;;5131838;27;20031;-59
2023/07/18 10:05:21;;;;;;;13.13;2.97;;;23.30;99.90;;;;;;5130425;27;20038;-59
2023/07/18 10:07:46;;;;;;;10.32;2.50;;;23.50;99.90;;;;;;5130926;27;20620;-59
2023/07/18 10:10:13;;;;;;;9.57;2.50;;;23.70;99.90;;;;;;5132162;27;20102;-60
2023/07/18 10:12:54;;;;;;;9.68;2.80;;;23.20;99.90;;;;;;5133164;27;20148;-59
2023/07/18 10:15:20;;;;;;;9.82;2.17;;;22.70;99.90;;;;;;5130857;27;20047;-59
2023/07/18 10:17:55;;;;;;;12.95;2.60;;;23.00;99.90;;;;;;5132143;27;20034;-60
2023/07/18 10:20:30;;;;;;;11.70;2.65;;;22.90;99.90;;;;;;5129681;27;20042;-59
2023/07/18 10:22:59;;;;;;;13.52;2.42;;;23.10;99.90;;;;;;5131017;27;20121;-59
2023/07/18 10:25:32;;;;;;;13.25;2.63;;;23.10;99.90;;;;;;5131259;27;20150;-59
2023/07/18 10:27:58;;;;;;;10.63;2.10;;;22.70;99.90;;;;;;5130549;27;20439;-59
2023/07/18 10:30:37;;;;;;;7.75;2.25;;;22.70;99.90;;;;;;5130625;27;20510;-59
2023/07/18 10:33:03;;;;;;;11.45;3.05;;;22.80;99.90;;;;;;5131358;27;20067;-60
2023/07/18 10:35:29;;;;;;;8.73;2.42;;;22.40;99.90;;;;;;5128789;27;20295;-59
2023/07/18 10:38:06;;;;;;;9.88;2.30;;;22.50;99.90;;;;;;5130789;27;20038;-59
2023/07/18 10:40:35;;;;;;;10.18;2.78;;;22.80;99.90;;;;;;5132924;27;20039;-59
2023/07/18 10:43:03;;;;;;;8.80;2.10;;;23.10;99.90;;;;;;5132333;27;20043;-59
2023/07/18 10:45:36;;;;;;;8.63;2.25;;;22.90;99.90;;;;;;5131118;27;20583;-59
2023/07/18 10:48:12;;;;;;;9.95;2.25;;;23.20;99.90;;;;;;5131556;27;20449;-60
2023/07/18 10:50:39;;;;;;;9.57;2.60;;;22.80;99.90;;;;;;5133209;27;20050;-60
2023/07/18 10:53:05;;;;;;;8.65;2.42;;;22.30;99.90;;;;;;5131273;27;20126;-59
2023/07/18 10:55:31;;;;;;;10.50;2.17;;;22.70;99.90;;;;;;5113700;27;20125;-59
2023/07/18 10:57:56;;;;;;;11.00;2.30;;;22.90;99.90;;;;;;5130361;27;20050;-59
2023/07/18 11:00:24;;;;;;;6.82;1.65;;;23.20;99.90;;;;;;5132231;27;20384;-60
2023/07/18 11:02:50;;;;;;;7.68;1.90;;;23.00;99.90;;;;;;5131283;27;20245;-59
2023/07/18 11:05:16;;;;;;;11.75;2.47;;;22.80;99.90;;;;;;5130203;27;20350;-60
2023/07/18 11:07:44;;;;;;;7.95;1.75;;;22.60;99.90;;;;;;5131705;27;20166;-60
2023/07/18 11:10:11;;;;;;;7.60;1.70;;;22.30;99.90;;;;;;5130253;27;20220;-60
2023/07/18 11:12:38;;;;;;;7.88;2.17;;;22.00;99.90;;;;;;5108294;27;20528;-60
2023/07/18 11:15:11;;;;;;;8.90;1.92;;;21.70;99.90;;;;;;5129599;27;20174;-60
2023/07/18 11:17:43;;;;;;;9.43;2.33;;;21.90;99.90;;;;;;5129876;27;20031;-60
2023/07/18 11:20:11;;;;;;;8.07;1.67;;;21.80;99.90;;;;;;5133867;27;20038;-60
2023/07/18 11:22:37;;;;;;;13.75;2.85;;;21.60;99.90;;;;;;5133806;27;20675;-60
2023/07/18 11:25:04;;;;;;;9.65;2.42;;;21.70;99.90;;;;;;5134842;27;20051;-60
2023/07/18 11:27:33;;;;;;;9.50;1.98;;;21.80;99.90;;;;;;5133914;27;20069;-60
2023/07/18 11:30:08;;;;;;;8.25;1.77;;;21.80;99.90;;;;;;5134918;27;20479;-60
2023/07/18 11:32:45;;;;;;;8.45;1.98;;;21.80;99.90;;;;;;5134869;27;20058;-60
2023/07/18 11:35:23;;;;;;;9.63;2.40;;;21.70;99.90;;;;;;5133358;27;20089;-60
2023/07/18 11:37:53;;;;;;;8.27;1.80;;;21.80;99.90;;;;;;5133934;27;20065;-60
2023/07/18 11:40:25;;;;;;;6.82;2.03;;;21.50;99.90;;;;;;5115558;27;20375;-60
2023/07/18 11:42:53;;;;;;;3.80;1.20;;;21.50;99.90;;;;;;5135363;27;20134;-59
2023/07/18 11:45:23;;;;;;;7.45;1.92;;;21.20;99.90;;;;;;5132203;27;20043;-60
2023/07/18 11:48:00;;;;;;;9.82;1.80;;;21.50;99.90;;;;;;5133928;27;20502;-60
2023/07/18 11:50:27;;;;;;;6.70;1.20;;;21.30;99.90;;;;;;5134937;27;20042;-60
2023/07/18 11:52:54;;;;;;;5.72;1.65;;;21.30;99.90;;;;;;5134033;27;20043;-60
2023/07/18 11:55:22;;;;;;;9.48;1.70;;;21.50;99.90;;;;;;5134135;27;20517;-60
2023/07/18 11:57:51;;;;;;;8.90;1.90;;;21.30;99.90;;;;;;5133766;27;20390;-60
2023/07/18 12:00:17;;;;;;;6.72;1.92;;;21.30;99.90;;;;;;5135241;27;20471;-60
2023/07/18 12:02:44;;;;;;;15.95;3.20;;;21.40;99.90;;;;;;5135254;27;20106;-60
2023/07/18 12:05:11;;;;;;;7.00;1.70;;;21.30;99.90;;;;;;5116950;27;20351;-60
2023/07/18 12:07:37;;;;;;;10.77;1.75;;;21.60;99.90;;;;;;5134942;27;20035;-60
2023/07/18 12:10:07;;;;;;;6.93;1.50;;;21.60;99.90;;;;;;5134387;27;20058;-60
2023/07/18 12:12:38;;;;;;;9.05;1.83;;;21.50;99.90;;;;;;5136281;27;20451;-60
2023/07/18 12:15:07;;;;;;;9.38;2.25;;;21.80;99.90;;;;;;5134649;27;20042;-60
2023/07/18 12:17:33;;;;;;;6.32;2.00;;;21.80;99.90;;;;;;5133140;27;20065;-60
2023/07/18 12:19:59;;;;;;;9.98;1.73;;;21.70;99.90;;;;;;5133566;27;20059;-60
2023/07/18 12:22:25;;;;;;;9.40;1.80;;;21.90;99.90;;;;;;5134828;27;20039;-66
2023/07/18 12:24:51;;;;;;;6.55;1.40;;;21.70;99.90;;;;;;5136129;27;20141;-66
2023/07/18 12:27:17;;;;;;;9.30;2.03;;;21.90;99.90;;;;;;5134932;27;20398;-67
2023/07/18 12:29:43;;;;;;;7.35;1.85;;;22.40;99.90;;;;;;5133056;27;20036;-66
2023/07/18 12:32:12;;;;;;;9.60;1.73;;;22.60;99.90;;;;;;5116811;27;20171;-66
2023/07/18 12:34:41;;;;;;;6.25;1.67;;;22.50;99.90;;;;;;5133408;27;20046;-66
2023/07/18 12:37:07;;;;;;;10.18;2.03;;;22.70;99.90;;;;;;5134302;27;20054;-66